sensor_id;sensor_type;location;lat;lon;timestamp;P1;durP1;ratioP1;P2;durP2;ratioP2
58669;SDS011;44439;47.924;10.198;2024-01-10T00:01:13;40.25;;;21.15;;
58669;SDS011;44439;47.924;10.198;2024-01-10T00:03:39;41.28;;;20.35;;
58669;SDS011;44439;47.924;10.198;2024-01-10T00:06:07;41.00;;;20.13;;
58669;SDS011;44439;47.924;10.198;2024-01-10T00:08:50;38.47;;;19.85;;
58669;SDS011;44439;47.924;10.198;2024-01-10T00:11:15;37.40;;;19.55;;
58669;SDS011;44439;47.924;10.198;2024-01-10T00:13:40;43.42;;;19.65;;
58669;SDS011;44439;47.924;10.198;2024-01-10T00:16:06;37.67;;;19.10;;
58669;SDS011;44439;47.924;10.198;2024-01-10T00:18:31;39.70;;;20.02;;
58669;SDS011;44439;47.924;10.198;2024-01-10T00:20:57;41.92;;;19.70;;
58669;SDS011;44439;47.924;10.198;2024-01-10T00:23:23;39.90;;;20.20;;
58669;SDS011;44439;47.924;10.198;2024-01-10T00:25:48;38.80;;;19.88;;
58669;SDS011;44439;47.924;10.198;2024-01-10T00:28:13;40.50;;;20.15;;
58669;SDS011;44439;47.924;10.198;2024-01-10T00:30:41;37.35;;;18.90;;
58669;SDS011;44439;47.924;10.198;2024-01-10T00:33:07;40.97;;;20.55;;
58669;SDS011;44439;47.924;10.198;2024-01-10T00:35:32;40.58;;;21.20;;
58669;SDS011;44439;47.924;10.198;2024-01-10T00:37:57;39.17;;;19.80;;
58669;SDS011;44439;47.924;10.198;2024-01-10T00:40:23;41.08;;;20.98;;
58669;SDS011;44439;47.924;10.198;2024-01-10T00:42:48;38.42;;;19.73;;
58669;SDS011;44439;47.924;10.198;2024-01-10T00:45:14;40.00;;;19.55;;
58669;SDS011;44439;47.924;10.198;2024-01-10T00:47:39;37.28;;;19.67;;
58669;SDS011;44439;47.924;10.198;2024-01-10T00:50:05;38.58;;;20.30;;
58669;SDS011;44439;47.924;10.198;2024-01-10T00:52:30;36.30;;;18.45;;
58669;SDS011;44439;47.924;10.198;2024-01-10T00:54:56;36.45;;;18.95;;
58669;SDS011;44439;47.924;10.198;2024-01-10T00:57:21;36.92;;;19.58;;
58669;SDS011;44439;47.924;10.198;2024-01-10T00:59:46;38.03;;;18.83;;
58669;SDS011;44439;47.924;10.198;2024-01-10T01:02:12;37.30;;;19.17;;
58669;SDS011;44439;47.924;10.198;2024-01-10T01:04:37;40.33;;;19.92;;
58669;SDS011;44439;47.924;10.198;2024-01-10T01:07:02;40.50;;;20.02;;
58669;SDS011;44439;47.924;10.198;2024-01-10T01:09:29;43.05;;;20.20;;
58669;SDS011;44439;47.924;10.198;2024-01-10T01:11:54;40.20;;;20.45;;
58669;SDS011;44439;47.924;10.198;2024-01-10T01:14:20;42.05;;;20.25;;
58669;SDS011;44439;47.924;10.198;2024-01-10T01:16:45;40.97;;;20.05;;
58669;SDS011;44439;47.924;10.198;2024-01-10T01:19:10;39.65;;;19.15;;
58669;SDS011;44439;47.924;10.198;2024-01-10T01:21:36;37.17;;;20.77;;
58669;SDS011;44439;47.924;10.198;2024-01-10T01:24:01;38.70;;;19.95;;
58669;SDS011;44439;47.924;10.198;2024-01-10T01:26:26;38.03;;;20.08;;
58669;SDS011;44439;47.924;10.198;2024-01-10T01:28:52;38.75;;;20.30;;
58669;SDS011;44439;47.924;10.198;2024-01-10T01:31:17;39.95;;;20.42;;
58669;SDS011;44439;47.924;10.198;2024-01-10T01:33:42;39.03;;;19.15;;
58669;SDS011;44439;47.924;10.198;2024-01-10T01:36:08;41.22;;;21.73;;
58669;SDS011;44439;47.924;10.198;2024-01-10T01:38:33;40.08;;;19.35;;
58669;SDS011;44439;47.924;10.198;2024-01-10T01:40:59;43.08;;;21.42;;
58669;SDS011;44439;47.924;10.198;2024-01-10T01:43:25;43.50;;;20.42;;
58669;SDS011;44439;47.924;10.198;2024-01-10T01:45:51;38.53;;;21.15;;
58669;SDS011;44439;47.924;10.198;2024-01-10T01:48:18;38.28;;;20.75;;
58669;SDS011;44439;47.924;10.198;2024-01-10T01:50:44;40.33;;;20.88;;
58669;SDS011;44439;47.924;10.198;2024-01-10T01:53:10;46.13;;;24.10;;
58669;SDS011;44439;47.924;10.198;2024-01-10T01:55:36;37.95;;;20.05;;
58669;SDS011;44439;47.924;10.198;2024-01-10T01:58:02;39.65;;;21.40;;
58669;SDS011;44439;47.924;10.198;2024-01-10T02:00:27;42.95;;;22.20;;
58669;SDS011;44439;47.924;10.198;2024-01-10T02:02:52;39.08;;;21.00;;
58669;SDS011;44439;47.924;10.198;2024-01-10T02:05:18;49.30;;;24.25;;
58669;SDS011;44439;47.924;10.198;2024-01-10T02:07:43;54.63;;;26.92;;
58669;SDS011;44439;47.924;10.198;2024-01-10T02:10:09;47.67;;;23.08;;
58669;SDS011;44439;47.924;10.198;2024-01-10T02:12:34;42.72;;;22.17;;
58669;SDS011;44439;47.924;10.198;2024-01-10T02:14:59;38.20;;;22.25;;
58669;SDS011;44439;47.924;10.198;2024-01-10T02:17:25;40.53;;;22.17;;
58669;SDS011;44439;47.924;10.198;2024-01-10T02:20:07;40.97;;;21.23;;
58669;SDS011;44439;47.924;10.198;2024-01-10T02:22:33;37.65;;;20.38;;
58669;SDS011;44439;47.924;10.198;2024-01-10T02:24:58;39.55;;;21.23;;
58669;SDS011;44439;47.924;10.198;2024-01-10T02:27:23;41.22;;;21.77;;
58669;SDS011;44439;47.924;10.198;2024-01-10T02:29:49;44.47;;;21.75;;
58669;SDS011;44439;47.924;10.198;2024-01-10T02:32:14;39.38;;;21.30;;
58669;SDS011;44439;47.924;10.198;2024-01-10T02:34:39;41.67;;;23.02;;
58669;SDS011;44439;47.924;10.198;2024-01-10T02:37:05;41.92;;;21.92;;
58669;SDS011;44439;47.924;10.198;2024-01-10T02:49:44;42.50;;;22.23;;
58669;SDS011;44439;47.924;10.198;2024-01-10T02:55:32;43.17;;;21.77;;
58669;SDS011;44439;47.924;10.198;2024-01-10T02:57:58;45.63;;;22.65;;
58669;SDS011;44439;47.924;10.198;2024-01-10T03:00:23;48.08;;;23.55;;
58669;SDS011;44439;47.924;10.198;2024-01-10T03:02:48;42.40;;;22.48;;
58669;SDS011;44439;47.924;10.198;2024-01-10T03:05:14;45.03;;;23.38;;
58669;SDS011;44439;47.924;10.198;2024-01-10T03:07:39;42.92;;;23.10;;
58669;SDS011;44439;47.924;10.198;2024-01-10T03:10:04;37.30;;;20.42;;
58669;SDS011;44439;47.924;10.198;2024-01-10T03:12:30;39.85;;;21.58;;
58669;SDS011;44439;47.924;10.198;2024-01-10T03:14:55;40.55;;;22.17;;
58669;SDS011;44439;47.924;10.198;2024-01-10T03:17:21;42.20;;;21.77;;
58669;SDS011;44439;47.924;10.198;2024-01-10T03:19:47;45.40;;;23.67;;
58669;SDS011;44439;47.924;10.198;2024-01-10T03:22:12;42.80;;;22.95;;
58669;SDS011;44439;47.924;10.198;2024-01-10T03:24:37;45.67;;;22.33;;
58669;SDS011;44439;47.924;10.198;2024-01-10T03:27:03;45.13;;;23.23;;
58669;SDS011;44439;47.924;10.198;2024-01-10T03:29:29;39.58;;;22.27;;
58669;SDS011;44439;47.924;10.198;2024-01-10T03:31:54;41.15;;;21.70;;
58669;SDS011;44439;47.924;10.198;2024-01-10T03:34:20;42.95;;;22.67;;
58669;SDS011;44439;47.924;10.198;2024-01-10T03:36:45;42.42;;;22.05;;
58669;SDS011;44439;47.924;10.198;2024-01-10T03:39:10;42.35;;;22.02;;
58669;SDS011;44439;47.924;10.198;2024-01-10T03:41:35;47.00;;;25.42;;
58669;SDS011;44439;47.924;10.198;2024-01-10T03:44:01;42.10;;;23.92;;
58669;SDS011;44439;47.924;10.198;2024-01-10T03:46:26;42.17;;;23.30;;
58669;SDS011;44439;47.924;10.198;2024-01-10T03:48:52;41.58;;;22.50;;
58669;SDS011;44439;47.924;10.198;2024-01-10T03:51:17;42.22;;;21.35;;
58669;SDS011;44439;47.924;10.198;2024-01-10T03:53:43;44.25;;;24.73;;
58669;SDS011;44439;47.924;10.198;2024-01-10T03:56:09;43.33;;;22.77;;
58669;SDS011;44439;47.924;10.198;2024-01-10T03:58:35;47.28;;;24.10;;
58669;SDS011;44439;47.924;10.198;2024-01-10T04:01:04;43.45;;;23.23;;
58669;SDS011;44439;47.924;10.198;2024-01-10T04:03:32;42.53;;;23.10;;
58669;SDS011;44439;47.924;10.198;2024-01-10T04:05:58;43.03;;;22.80;;
58669;SDS011;44439;47.924;10.198;2024-01-10T04:08:23;43.97;;;22.65;;
58669;SDS011;44439;47.924;10.198;2024-01-10T04:10:49;44.38;;;22.45;;
58669;SDS011;44439;47.924;10.198;2024-01-10T04:13:14;37.15;;;20.50;;
58669;SDS011;44439;47.924;10.198;2024-01-10T04:15:39;45.50;;;23.08;;
58669;SDS011;44439;47.924;10.198;2024-01-10T04:18:05;44.40;;;23.05;;
58669;SDS011;44439;47.924;10.198;2024-01-10T04:20:30;42.47;;;22.05;;
58669;SDS011;44439;47.924;10.198;2024-01-10T04:22:56;48.00;;;23.92;;
58669;SDS011;44439;47.924;10.198;2024-01-10T04:25:21;41.10;;;23.13;;
58669;SDS011;44439;47.924;10.198;2024-01-10T04:27:46;43.83;;;22.85;;
58669;SDS011;44439;47.924;10.198;2024-01-10T04:30:12;43.13;;;22.98;;
58669;SDS011;44439;47.924;10.198;2024-01-10T04:32:37;44.10;;;23.90;;
58669;SDS011;44439;47.924;10.198;2024-01-10T04:35:03;40.15;;;22.38;;
58669;SDS011;44439;47.924;10.198;2024-01-10T04:37:28;40.97;;;23.23;;
58669;SDS011;44439;47.924;10.198;2024-01-10T04:39:54;40.28;;;22.17;;
58669;SDS011;44439;47.924;10.198;2024-01-10T04:42:19;42.90;;;23.83;;
58669;SDS011;44439;47.924;10.198;2024-01-10T04:44:44;40.33;;;23.30;;
58669;SDS011;44439;47.924;10.198;2024-01-10T04:47:10;41.78;;;22.95;;
58669;SDS011;44439;47.924;10.198;2024-01-10T04:49:35;41.92;;;22.73;;
58669;SDS011;44439;47.924;10.198;2024-01-10T04:52:01;43.42;;;23.35;;
58669;SDS011;44439;47.924;10.198;2024-01-10T04:54:26;42.92;;;23.30;;
58669;SDS011;44439;47.924;10.198;2024-01-10T04:56:52;44.38;;;23.67;;
58669;SDS011;44439;47.924;10.198;2024-01-10T04:59:17;42.55;;;23.35;;
58669;SDS011;44439;47.924;10.198;2024-01-10T05:01:42;40.10;;;21.58;;
58669;SDS011;44439;47.924;10.198;2024-01-10T05:04:07;42.22;;;22.25;;
58669;SDS011;44439;47.924;10.198;2024-01-10T05:06:33;42.97;;;21.52;;
58669;SDS011;44439;47.924;10.198;2024-01-10T05:08:58;39.90;;;22.08;;
58669;SDS011;44439;47.924;10.198;2024-01-10T05:11:24;42.67;;;21.23;;
58669;SDS011;44439;47.924;10.198;2024-01-10T05:13:53;43.67;;;22.47;;
58669;SDS011;44439;47.924;10.198;2024-01-10T05:16:18;38.75;;;20.70;;
58669;SDS011;44439;47.924;10.198;2024-01-10T05:18:44;41.05;;;19.70;;
58669;SDS011;44439;47.924;10.198;2024-01-10T05:21:09;40.65;;;22.30;;
58669;SDS011;44439;47.924;10.198;2024-01-10T05:23:35;39.17;;;20.80;;
58669;SDS011;44439;47.924;10.198;2024-01-10T05:26:00;41.13;;;21.83;;
58669;SDS011;44439;47.924;10.198;2024-01-10T05:28:26;39.35;;;20.65;;
58669;SDS011;44439;47.924;10.198;2024-01-10T05:30:51;39.13;;;22.88;;
58669;SDS011;44439;47.924;10.198;2024-01-10T05:33:19;41.38;;;21.80;;
58669;SDS011;44439;47.924;10.198;2024-01-10T05:35:45;42.95;;;21.85;;
58669;SDS011;44439;47.924;10.198;2024-01-10T05:38:10;46.30;;;22.55;;
58669;SDS011;44439;47.924;10.198;2024-01-10T05:40:35;47.40;;;23.42;;
58669;SDS011;44439;47.924;10.198;2024-01-10T05:43:01;44.67;;;23.17;;
58669;SDS011;44439;47.924;10.198;2024-01-10T05:45:26;39.92;;;21.42;;
58669;SDS011;44439;47.924;10.198;2024-01-10T05:47:52;45.72;;;23.38;;
58669;SDS011;44439;47.924;10.198;2024-01-10T05:50:17;44.40;;;20.55;;
58669;SDS011;44439;47.924;10.198;2024-01-10T05:52:43;43.00;;;22.00;;
58669;SDS011;44439;47.924;10.198;2024-01-10T05:55:11;41.15;;;21.23;;
58669;SDS011;44439;47.924;10.198;2024-01-10T05:57:36;41.63;;;20.08;;
58669;SDS011;44439;47.924;10.198;2024-01-10T06:00:02;42.65;;;20.90;;
58669;SDS011;44439;47.924;10.198;2024-01-10T06:02:29;44.58;;;21.35;;
58669;SDS011;44439;47.924;10.198;2024-01-10T06:04:55;44.17;;;22.77;;
58669;SDS011;44439;47.924;10.198;2024-01-10T06:07:20;49.30;;;26.48;;
58669;SDS011;44439;47.924;10.198;2024-01-10T06:09:48;47.28;;;23.63;;
58669;SDS011;44439;47.924;10.198;2024-01-10T06:12:13;46.22;;;21.75;;
58669;SDS011;44439;47.924;10.198;2024-01-10T06:14:39;42.60;;;21.80;;
58669;SDS011;44439;47.924;10.198;2024-01-10T06:17:05;43.55;;;21.52;;
58669;SDS011;44439;47.924;10.198;2024-01-10T06:19:30;46.03;;;22.98;;
58669;SDS011;44439;47.924;10.198;2024-01-10T06:21:56;49.80;;;25.73;;
58669;SDS011;44439;47.924;10.198;2024-01-10T06:24:22;55.53;;;26.50;;
58669;SDS011;44439;47.924;10.198;2024-01-10T06:26:50;55.33;;;28.38;;
58669;SDS011;44439;47.924;10.198;2024-01-10T06:29:15;45.35;;;24.30;;
58669;SDS011;44439;47.924;10.198;2024-01-10T06:31:41;46.55;;;23.60;;
58669;SDS011;44439;47.924;10.198;2024-01-10T06:34:07;48.70;;;24.65;;
58669;SDS011;44439;47.924;10.198;2024-01-10T06:36:33;46.08;;;22.88;;
58669;SDS011;44439;47.924;10.198;2024-01-10T06:38:59;45.75;;;23.73;;
58669;SDS011;44439;47.924;10.198;2024-01-10T06:41:24;48.22;;;24.40;;
58669;SDS011;44439;47.924;10.198;2024-01-10T06:43:50;45.85;;;23.20;;
58669;SDS011;44439;47.924;10.198;2024-01-10T06:46:16;44.85;;;22.67;;
58669;SDS011;44439;47.924;10.198;2024-01-10T06:48:41;43.60;;;23.00;;
58669;SDS011;44439;47.924;10.198;2024-01-10T06:51:10;43.55;;;23.38;;
58669;SDS011;44439;47.924;10.198;2024-01-10T06:56:03;48.70;;;24.00;;
58669;SDS011;44439;47.924;10.198;2024-01-10T06:58:28;56.65;;;28.20;;
58669;SDS011;44439;47.924;10.198;2024-01-10T07:00:53;52.70;;;25.90;;
58669;SDS011;44439;47.924;10.198;2024-01-10T07:03:19;45.78;;;23.27;;
58669;SDS011;44439;47.924;10.198;2024-01-10T07:05:44;50.85;;;26.67;;
58669;SDS011;44439;47.924;10.198;2024-01-10T07:08:09;41.70;;;25.98;;
58669;SDS011;44439;47.924;10.198;2024-01-10T07:10:35;44.15;;;26.15;;
58669;SDS011;44439;47.924;10.198;2024-01-10T07:13:00;44.95;;;25.13;;
58669;SDS011;44439;47.924;10.198;2024-01-10T07:15:29;45.42;;;25.35;;
58669;SDS011;44439;47.924;10.198;2024-01-10T07:17:54;43.30;;;22.73;;
58669;SDS011;44439;47.924;10.198;2024-01-10T07:20:20;43.00;;;23.48;;
58669;SDS011;44439;47.924;10.198;2024-01-10T07:22:45;40.78;;;21.23;;
58669;SDS011;44439;47.924;10.198;2024-01-10T07:25:10;46.10;;;22.73;;
58669;SDS011;44439;47.924;10.198;2024-01-10T07:27:39;44.40;;;24.17;;
58669;SDS011;44439;47.924;10.198;2024-01-10T07:30:05;47.65;;;22.77;;
58669;SDS011;44439;47.924;10.198;2024-01-10T07:32:38;42.78;;;22.63;;
58669;SDS011;44439;47.924;10.198;2024-01-10T07:35:04;46.15;;;22.30;;
58669;SDS011;44439;47.924;10.198;2024-01-10T07:37:29;46.60;;;23.80;;
58669;SDS011;44439;47.924;10.198;2024-01-10T07:39:55;44.55;;;22.55;;
58669;SDS011;44439;47.924;10.198;2024-01-10T07:42:22;46.05;;;23.65;;
58669;SDS011;44439;47.924;10.198;2024-01-10T07:44:47;45.17;;;22.88;;
58669;SDS011;44439;47.924;10.198;2024-01-10T07:47:12;48.38;;;22.95;;
58669;SDS011;44439;47.924;10.198;2024-01-10T07:49:38;47.28;;;24.10;;
58669;SDS011;44439;47.924;10.198;2024-01-10T07:52:03;49.10;;;23.33;;
58669;SDS011;44439;47.924;10.198;2024-01-10T07:54:29;46.90;;;23.75;;
58669;SDS011;44439;47.924;10.198;2024-01-10T07:56:57;51.83;;;24.63;;
58669;SDS011;44439;47.924;10.198;2024-01-10T07:59:22;45.55;;;22.75;;
58669;SDS011;44439;47.924;10.198;2024-01-10T08:01:55;44.20;;;23.77;;
58669;SDS011;44439;47.924;10.198;2024-01-10T08:04:23;45.65;;;25.58;;
58669;SDS011;44439;47.924;10.198;2024-01-10T08:06:49;48.28;;;26.20;;
58669;SDS011;44439;47.924;10.198;2024-01-10T08:09:14;49.05;;;27.23;;
58669;SDS011;44439;47.924;10.198;2024-01-10T08:11:40;48.08;;;23.90;;
58669;SDS011;44439;47.924;10.198;2024-01-10T08:14:08;57.25;;;28.17;;
58669;SDS011;44439;47.924;10.198;2024-01-10T08:16:38;48.00;;;27.80;;
58669;SDS011;44439;47.924;10.198;2024-01-10T08:19:13;44.00;;;24.02;;
58669;SDS011;44439;47.924;10.198;2024-01-10T08:21:39;50.33;;;25.35;;
58669;SDS011;44439;47.924;10.198;2024-01-10T08:24:05;48.25;;;25.13;;
58669;SDS011;44439;47.924;10.198;2024-01-10T08:26:31;47.38;;;23.15;;
58669;SDS011;44439;47.924;10.198;2024-01-10T08:28:56;42.45;;;22.58;;
58669;SDS011;44439;47.924;10.198;2024-01-10T08:31:22;42.40;;;22.85;;
58669;SDS011;44439;47.924;10.198;2024-01-10T08:33:48;43.97;;;23.17;;
58669;SDS011;44439;47.924;10.198;2024-01-10T08:36:13;48.13;;;23.90;;
58669;SDS011;44439;47.924;10.198;2024-01-10T08:38:42;46.42;;;23.90;;
58669;SDS011;44439;47.924;10.198;2024-01-10T08:41:07;47.67;;;23.92;;
58669;SDS011;44439;47.924;10.198;2024-01-10T08:43:33;48.92;;;23.67;;
58669;SDS011;44439;47.924;10.198;2024-01-10T08:45:59;44.33;;;24.23;;
58669;SDS011;44439;47.924;10.198;2024-01-10T08:48:24;46.90;;;25.02;;
58669;SDS011;44439;47.924;10.198;2024-01-10T08:50:51;44.65;;;23.13;;
58669;SDS011;44439;47.924;10.198;2024-01-10T08:53:16;45.83;;;24.35;;
58669;SDS011;44439;47.924;10.198;2024-01-10T08:55:44;44.97;;;24.15;;
58669;SDS011;44439;47.924;10.198;2024-01-10T08:58:12;45.10;;;23.42;;
58669;SDS011;44439;47.924;10.198;2024-01-10T09:00:37;44.97;;;23.88;;
58669;SDS011;44439;47.924;10.198;2024-01-10T09:03:02;49.42;;;24.17;;
58669;SDS011;44439;47.924;10.198;2024-01-10T09:05:28;46.72;;;24.40;;
58669;SDS011;44439;47.924;10.198;2024-01-10T09:07:53;45.50;;;23.15;;
58669;SDS011;44439;47.924;10.198;2024-01-10T09:10:19;43.80;;;23.23;;
58669;SDS011;44439;47.924;10.198;2024-01-10T09:12:49;48.10;;;24.05;;
58669;SDS011;44439;47.924;10.198;2024-01-10T09:15:18;42.78;;;23.08;;
58669;SDS011;44439;47.924;10.198;2024-01-10T09:17:44;39.22;;;21.95;;
58669;SDS011;44439;47.924;10.198;2024-01-10T09:20:10;51.42;;;25.42;;
58669;SDS011;44439;47.924;10.198;2024-01-10T09:22:36;44.75;;;25.40;;
58669;SDS011;44439;47.924;10.198;2024-01-10T09:25:02;47.33;;;24.45;;
58669;SDS011;44439;47.924;10.198;2024-01-10T09:27:30;47.20;;;24.38;;
58669;SDS011;44439;47.924;10.198;2024-01-10T09:29:56;48.42;;;25.42;;
58669;SDS011;44439;47.924;10.198;2024-01-10T09:32:22;50.85;;;26.58;;
58669;SDS011;44439;47.924;10.198;2024-01-10T09:34:47;48.08;;;24.52;;
58669;SDS011;44439;47.924;10.198;2024-01-10T09:37:14;43.00;;;24.77;;
58669;SDS011;44439;47.924;10.198;2024-01-10T09:39:47;48.13;;;23.80;;
58669;SDS011;44439;47.924;10.198;2024-01-10T09:42:13;52.47;;;27.65;;
58669;SDS011;44439;47.924;10.198;2024-01-10T09:44:39;49.75;;;24.73;;
58669;SDS011;44439;47.924;10.198;2024-01-10T09:47:08;45.92;;;25.25;;
58669;SDS011;44439;47.924;10.198;2024-01-10T09:49:45;44.67;;;23.67;;
58669;SDS011;44439;47.924;10.198;2024-01-10T09:52:13;46.88;;;24.08;;
58669;SDS011;44439;47.924;10.198;2024-01-10T09:54:45;44.78;;;24.45;;
58669;SDS011;44439;47.924;10.198;2024-01-10T09:57:12;45.13;;;25.48;;
58669;SDS011;44439;47.924;10.198;2024-01-10T09:59:38;53.45;;;27.83;;
58669;SDS011;44439;47.924;10.198;2024-01-10T10:02:03;58.53;;;32.97;;
58669;SDS011;44439;47.924;10.198;2024-01-10T10:04:29;50.75;;;27.13;;
58669;SDS011;44439;47.924;10.198;2024-01-10T10:06:59;50.22;;;26.60;;
58669;SDS011;44439;47.924;10.198;2024-01-10T10:09:28;94.55;;;39.72;;
58669;SDS011;44439;47.924;10.198;2024-01-10T10:11:57;66.22;;;37.47;;
58669;SDS011;44439;47.924;10.198;2024-01-10T10:14:23;50.22;;;25.60;;
58669;SDS011;44439;47.924;10.198;2024-01-10T10:16:51;49.63;;;27.75;;
58669;SDS011;44439;47.924;10.198;2024-01-10T10:19:23;49.75;;;26.23;;
58669;SDS011;44439;47.924;10.198;2024-01-10T10:21:49;49.47;;;25.48;;
58669;SDS011;44439;47.924;10.198;2024-01-10T10:24:15;51.65;;;25.55;;
58669;SDS011;44439;47.924;10.198;2024-01-10T10:26:43;50.50;;;24.40;;
58669;SDS011;44439;47.924;10.198;2024-01-10T10:29:09;49.38;;;25.10;;
58669;SDS011;44439;47.924;10.198;2024-01-10T10:31:34;52.78;;;27.70;;
58669;SDS011;44439;47.924;10.198;2024-01-10T10:34:00;50.30;;;26.88;;
58669;SDS011;44439;47.924;10.198;2024-01-10T10:36:27;49.72;;;26.42;;
58669;SDS011;44439;47.924;10.198;2024-01-10T10:38:52;49.05;;;25.80;;
58669;SDS011;44439;47.924;10.198;2024-01-10T10:41:18;41.30;;;23.60;;
58669;SDS011;44439;47.924;10.198;2024-01-10T10:43:43;50.53;;;27.20;;
58669;SDS011;44439;47.924;10.198;2024-01-10T10:46:10;49.42;;;25.52;;
58669;SDS011;44439;47.924;10.198;2024-01-10T10:48:39;48.70;;;26.25;;
58669;SDS011;44439;47.924;10.198;2024-01-10T10:51:06;50.42;;;25.90;;
58669;SDS011;44439;47.924;10.198;2024-01-10T10:53:54;51.72;;;26.35;;
58669;SDS011;44439;47.924;10.198;2024-01-10T10:56:20;52.25;;;24.80;;
58669;SDS011;44439;47.924;10.198;2024-01-10T10:58:45;52.95;;;24.75;;
58669;SDS011;44439;47.924;10.198;2024-01-10T11:01:11;55.33;;;28.05;;
58669;SDS011;44439;47.924;10.198;2024-01-10T11:03:38;49.53;;;26.13;;
58669;SDS011;44439;47.924;10.198;2024-01-10T11:06:08;51.47;;;28.15;;
58669;SDS011;44439;47.924;10.198;2024-01-10T11:08:38;50.88;;;26.67;;
58669;SDS011;44439;47.924;10.198;2024-01-10T11:11:17;48.47;;;26.15;;
58669;SDS011;44439;47.924;10.198;2024-01-10T11:16:56;52.10;;;25.73;;
58669;SDS011;44439;47.924;10.198;2024-01-10T11:24:59;45.63;;;25.27;;
58669;SDS011;44439;47.924;10.198;2024-01-10T11:27:25;50.20;;;26.85;;
58669;SDS011;44439;47.924;10.198;2024-01-10T11:29:51;55.40;;;26.38;;
58669;SDS011;44439;47.924;10.198;2024-01-10T11:32:17;53.65;;;28.15;;
58669;SDS011;44439;47.924;10.198;2024-01-10T11:34:56;62.92;;;29.90;;
58669;SDS011;44439;47.924;10.198;2024-01-10T11:37:23;53.78;;;28.13;;
58669;SDS011;44439;47.924;10.198;2024-01-10T11:39:50;55.33;;;27.50;;
58669;SDS011;44439;47.924;10.198;2024-01-10T11:42:22;61.17;;;28.80;;
58669;SDS011;44439;47.924;10.198;2024-01-10T11:44:49;81.38;;;37.08;;
58669;SDS011;44439;47.924;10.198;2024-01-10T11:47:15;65.53;;;31.77;;
58669;SDS011;44439;47.924;10.198;2024-01-10T11:49:40;56.30;;;29.45;;
58669;SDS011;44439;47.924;10.198;2024-01-10T11:52:06;57.47;;;28.17;;
58669;SDS011;44439;47.924;10.198;2024-01-10T11:59:42;55.33;;;29.52;;
58669;SDS011;44439;47.924;10.198;2024-01-10T12:02:10;53.20;;;27.15;;
58669;SDS011;44439;47.924;10.198;2024-01-10T12:04:37;57.42;;;28.40;;
58669;SDS011;44439;47.924;10.198;2024-01-10T12:07:02;56.42;;;27.92;;
58669;SDS011;44439;47.924;10.198;2024-01-10T12:09:28;54.83;;;28.30;;
58669;SDS011;44439;47.924;10.198;2024-01-10T12:11:55;53.78;;;26.80;;
58669;SDS011;44439;47.924;10.198;2024-01-10T12:14:20;59.80;;;29.02;;
58669;SDS011;44439;47.924;10.198;2024-01-10T12:16:46;53.33;;;27.45;;
58669;SDS011;44439;47.924;10.198;2024-01-10T12:19:12;60.28;;;29.88;;
58669;SDS011;44439;47.924;10.198;2024-01-10T12:21:37;62.10;;;29.20;;
58669;SDS011;44439;47.924;10.198;2024-01-10T12:24:04;68.25;;;32.22;;
58669;SDS011;44439;47.924;10.198;2024-01-10T12:26:33;65.13;;;30.80;;
58669;SDS011;44439;47.924;10.198;2024-01-10T12:28:59;57.58;;;28.05;;
58669;SDS011;44439;47.924;10.198;2024-01-10T12:31:28;52.40;;;26.33;;
58669;SDS011;44439;47.924;10.198;2024-01-10T12:33:57;50.10;;;25.55;;
58669;SDS011;44439;47.924;10.198;2024-01-10T12:36:24;53.40;;;27.20;;
58669;SDS011;44439;47.924;10.198;2024-01-10T12:38:49;56.90;;;25.83;;
58669;SDS011;44439;47.924;10.198;2024-01-10T12:41:15;49.92;;;25.00;;
58669;SDS011;44439;47.924;10.198;2024-01-10T12:43:42;44.97;;;23.13;;
58669;SDS011;44439;47.924;10.198;2024-01-10T12:46:11;46.63;;;22.30;;
58669;SDS011;44439;47.924;10.198;2024-01-10T12:48:37;44.60;;;22.23;;
58669;SDS011;44439;47.924;10.198;2024-01-10T12:51:07;44.67;;;24.02;;
58669;SDS011;44439;47.924;10.198;2024-01-10T12:53:37;48.85;;;23.52;;
58669;SDS011;44439;47.924;10.198;2024-01-10T12:56:06;43.22;;;21.98;;
58669;SDS011;44439;47.924;10.198;2024-01-10T12:58:33;46.65;;;24.15;;
58669;SDS011;44439;47.924;10.198;2024-01-10T13:01:01;45.00;;;21.48;;
58669;SDS011;44439;47.924;10.198;2024-01-10T13:03:28;47.60;;;23.05;;
58669;SDS011;44439;47.924;10.198;2024-01-10T13:05:53;46.38;;;22.88;;
58669;SDS011;44439;47.924;10.198;2024-01-10T13:08:19;48.45;;;24.58;;
58669;SDS011;44439;47.924;10.198;2024-01-10T13:10:44;49.85;;;26.92;;
58669;SDS011;44439;47.924;10.198;2024-01-10T13:13:11;49.60;;;25.35;;
58669;SDS011;44439;47.924;10.198;2024-01-10T13:15:36;47.28;;;25.30;;
58669;SDS011;44439;47.924;10.198;2024-01-10T13:18:02;50.17;;;25.90;;
58669;SDS011;44439;47.924;10.198;2024-01-10T13:20:27;44.78;;;22.92;;
58669;SDS011;44439;47.924;10.198;2024-01-10T13:22:53;39.95;;;21.17;;
58669;SDS011;44439;47.924;10.198;2024-01-10T13:25:18;36.38;;;17.15;;
58669;SDS011;44439;47.924;10.198;2024-01-10T13:27:48;44.60;;;19.20;;
58669;SDS011;44439;47.924;10.198;2024-01-10T13:30:15;51.15;;;23.80;;
58669;SDS011;44439;47.924;10.198;2024-01-10T13:32:41;50.72;;;27.38;;
58669;SDS011;44439;47.924;10.198;2024-01-10T13:35:06;53.55;;;23.05;;
58669;SDS011;44439;47.924;10.198;2024-01-10T13:37:32;44.28;;;22.67;;
58669;SDS011;44439;47.924;10.198;2024-01-10T13:39:57;46.22;;;22.20;;
58669;SDS011;44439;47.924;10.198;2024-01-10T13:42:23;48.30;;;23.08;;
58669;SDS011;44439;47.924;10.198;2024-01-10T13:44:48;41.28;;;20.77;;
58669;SDS011;44439;47.924;10.198;2024-01-10T13:47:14;48.55;;;23.58;;
58669;SDS011;44439;47.924;10.198;2024-01-10T13:49:40;46.35;;;23.05;;
58669;SDS011;44439;47.924;10.198;2024-01-10T13:52:06;47.38;;;22.58;;
58669;SDS011;44439;47.924;10.198;2024-01-10T13:54:32;50.78;;;26.10;;
58669;SDS011;44439;47.924;10.198;2024-01-10T13:56:57;47.65;;;24.02;;
58669;SDS011;44439;47.924;10.198;2024-01-10T13:59:22;60.78;;;29.20;;
58669;SDS011;44439;47.924;10.198;2024-01-10T14:01:47;48.58;;;25.50;;
58669;SDS011;44439;47.924;10.198;2024-01-10T14:04:13;48.33;;;22.35;;
58669;SDS011;44439;47.924;10.198;2024-01-10T14:06:38;46.15;;;22.02;;
58669;SDS011;44439;47.924;10.198;2024-01-10T14:09:03;51.15;;;22.75;;
58669;SDS011;44439;47.924;10.198;2024-01-10T14:11:29;50.35;;;23.42;;
58669;SDS011;44439;47.924;10.198;2024-01-10T14:13:54;46.05;;;21.42;;
58669;SDS011;44439;47.924;10.198;2024-01-10T14:16:19;44.58;;;22.83;;
58669;SDS011;44439;47.924;10.198;2024-01-10T14:18:45;45.85;;;22.70;;
58669;SDS011;44439;47.924;10.198;2024-01-10T14:21:12;48.83;;;20.83;;
58669;SDS011;44439;47.924;10.198;2024-01-10T14:23:37;44.58;;;21.95;;
58669;SDS011;44439;47.924;10.198;2024-01-10T14:26:02;45.70;;;21.27;;
58669;SDS011;44439;47.924;10.198;2024-01-10T14:28:30;43.10;;;22.73;;
58669;SDS011;44439;47.924;10.198;2024-01-10T14:30:56;43.40;;;20.63;;
58669;SDS011;44439;47.924;10.198;2024-01-10T14:33:21;44.78;;;21.42;;